createdAt,value
2022-11-30T00:12:07.617Z,0.9259
2022-11-30T00:13:07.648Z,0.9479
2022-11-30T00:14:07.684Z,0.9479
2022-11-30T00:15:07.721Z,0.9259
2022-11-30T00:16:07.763Z,0.9116
2022-11-30T00:17:07.864Z,0.9116
2022-11-30T00:23:40.788Z,0.9029
2022-11-30T00:24:40.834Z,0.8886
2022-11-30T00:25:40.874Z,0.9029
2022-11-30T00:26:40.930Z,0.9172
2022-11-30T00:27:40.933Z,0.9314
2022-11-30T00:28:40.966Z,0.9599
2022-11-30T00:29:41.017Z,0.9742
2022-11-30T00:30:41.147Z,1.003
2022-11-30T00:31:41.051Z,1.017
2022-11-30T00:32:41.090Z,1.017
2022-11-30T00:33:41.121Z,1.017
2022-11-30T00:34:41.149Z,1.031
2022-11-30T00:35:41.213Z,1.017
2022-11-30T00:36:41.227Z,1.003
2022-11-30T00:37:41.279Z,1.003
2022-11-30T00:38:41.287Z,1.003
2022-11-30T00:39:41.337Z,1.003
2022-11-30T00:40:41.356Z,1.003
2022-11-30T00:41:41.397Z,0.9884
2022-11-30T00:42:41.423Z,0.9742
2022-11-30T00:43:41.455Z,0.9654
2022-11-30T00:44:41.512Z,1.003
2022-11-30T00:45:41.633Z,1.045
2022-11-30T00:46:41.551Z,1.017
2022-11-30T00:47:41.567Z,0.9884
2022-11-30T00:48:41.600Z,0.9742
2022-11-30T00:49:41.657Z,0.9314
2022-11-30T00:50:41.656Z,0.9314
2022-11-30T00:51:41.694Z,0.9172
2022-11-30T00:52:41.721Z,0.9314
2022-11-30T00:53:41.752Z,0.9314
2022-11-30T00:54:41.795Z,0.9172
2022-11-30T00:55:41.808Z,0.9314
2022-11-30T00:56:41.834Z,0.9172
2022-11-30T00:57:41.894Z,0.9172
2022-11-30T00:58:41.901Z,0.9172
2022-11-30T00:59:41.919Z,0.9029
2022-11-30T01:00:41.951Z,0.9029
2022-11-30T01:01:42.007Z,0.9029
2022-11-30T01:02:42.153Z,0.8886
2022-11-30T01:03:42.045Z,0.9029
2022-11-30T01:04:42.079Z,0.9029
2022-11-30T01:05:42.107Z,0.8886
2022-11-30T01:06:42.146Z,0.8799
2022-11-30T01:07:42.211Z,0.8799
2022-11-30T01:08:42.179Z,0.8743
2022-11-30T01:09:42.218Z,0.8743
2022-11-30T01:10:42.242Z,0.8886
2022-11-30T01:11:42.274Z,0.8886
2022-11-30T01:12:42.346Z,0.8886
2022-11-30T01:13:42.345Z,0.8886
2022-11-30T01:14:42.374Z,0.8886
2022-11-30T01:15:42.505Z,0.8743
2022-11-30T01:16:42.433Z,0.86
2022-11-30T01:17:42.491Z,0.86
2022-11-30T01:18:42.518Z,0.86
2022-11-30T01:19:42.541Z,0.86
2022-11-30T01:20:42.567Z,0.837
2022-11-30T01:21:42.584Z,0.86
2022-11-30T01:22:42.625Z,0.837
2022-11-30T01:23:42.676Z,0.8513
2022-11-30T01:24:42.690Z,0.8743
2022-11-30T01:25:42.713Z,0.8227
2022-11-30T01:26:42.759Z,0.8313
2022-11-30T01:27:42.798Z,0.8026
2022-11-30T01:28:42.855Z,0.7882
2022-11-30T01:29:42.863Z,0.7882
2022-11-30T05:52:12.760Z,0.05534
2022-11-30T05:53:12.794Z,0.01126
2022-11-30T05:54:12.831Z,0.01126
2022-11-30T05:55:12.864Z,-0.003455
2022-11-30T05:56:12.887Z,0.02596
2022-11-30T05:57:12.928Z,0.01126
2022-11-30T05:58:12.964Z,-0.003455
2022-11-30T05:59:13.006Z,0.02596
2022-11-30T06:00:13.018Z,0.01126
2022-11-30T06:01:13.057Z,-0.003455
2022-11-30T06:02:13.244Z,0.01126
2022-11-30T06:03:13.254Z,-0.0182
2022-11-30T06:04:13.161Z,-0.0182
2022-11-30T06:05:13.177Z,-0.0182
2022-11-30T06:06:13.210Z,-0.03295
2022-11-30T06:07:13.237Z,-0.0182
2022-11-30T06:08:13.276Z,0.01126
2022-11-30T06:09:13.336Z,0.01126
2022-11-30T06:10:13.350Z,0.01126
2022-11-30T06:11:13.372Z,-0.0182
2022-11-30T06:12:13.441Z,0.01126
2022-11-30T06:13:13.437Z,0.01126
2022-11-30T06:14:13.466Z,-0.04109
2022-11-30T06:15:13.492Z,-0.03295
2022-11-30T06:16:13.570Z,-0.04109
2022-11-30T06:17:13.569Z,-0.04109
2022-11-30T06:18:13.591Z,-0.05583
2022-11-30T06:19:13.621Z,-0.04109
2022-11-30T06:20:13.657Z,-0.02634
2022-11-30T06:21:13.675Z,-0.01163
2022-11-30T06:22:13.713Z,-0.02634
2022-11-30T06:23:13.741Z,-0.02634
2022-11-30T06:24:13.763Z,-0.02634
2022-11-30T06:25:13.808Z,-0.02634
2022-11-30T06:26:13.811Z,-0.02634
2022-11-30T06:27:13.849Z,-0.02634
2022-11-30T06:28:13.880Z,-0.0182
2022-11-30T06:29:13.923Z,-0.04109
2022-11-30T06:30:13.957Z,-0.0182
2022-11-30T06:31:14.043Z,-0.003455
2022-11-30T06:32:13.997Z,-0.0182
2022-11-30T06:33:14.029Z,-0.0477
2022-11-30T06:34:14.065Z,-0.09208
2022-11-30T06:35:14.117Z,-0.07728
2022-11-30T06:36:14.157Z,-0.06249
2022-11-30T06:37:14.153Z,-0.0477
2022-11-30T06:38:14.189Z,-0.03295
2022-11-30T06:39:14.218Z,-0.0477
2022-11-30T06:40:14.256Z,-0.06249
2022-11-30T06:41:14.278Z,-0.1069
2022-11-30T06:42:14.299Z,-0.1069
2022-11-30T06:43:14.327Z,-0.09208
2022-11-30T06:44:14.371Z,-0.07728
2022-11-30T06:45:14.424Z,-0.07728
2022-11-30T06:46:14.503Z,-0.09208
2022-11-30T06:47:14.466Z,-0.1069
2022-11-30T06:48:14.499Z,-0.1069
2022-11-30T06:49:14.525Z,-0.09208
2022-11-30T06:50:14.555Z,-0.09208
2022-11-30T06:51:14.605Z,-0.1069
2022-11-30T06:52:14.624Z,-0.1217
2022-11-30T06:53:14.669Z,-0.1217
2022-11-30T06:54:14.685Z,-0.1366
2022-11-30T06:55:14.709Z,-0.1217
2022-11-30T06:56:14.873Z,-0.1366
2022-11-30T06:57:14.771Z,-0.1366
2022-11-30T06:58:14.796Z,-0.1217
2022-11-30T06:59:14.838Z,-0.1298
2022-11-30T07:00:14.850Z,-0.06249
2022-11-30T07:01:14.965Z,-0.07728
2022-11-30T07:02:18.194Z,-0.09208
2022-11-30T07:03:14.946Z,-0.09208
2022-11-30T07:04:15.112Z,-0.1002
2022-11-30T07:05:15.023Z,-0.1002
2022-11-30T07:06:15.031Z,-0.1002
2022-11-30T07:07:15.087Z,-0.1069
2022-11-30T07:08:15.079Z,-0.1298
2022-11-30T07:09:15.126Z,-0.1002
2022-11-30T07:10:19.886Z,-0.1149
2022-11-30T07:11:15.179Z,-0.1298
2022-11-30T07:12:15.238Z,-0.1298
2022-11-30T07:13:15.254Z,-0.1446
2022-11-30T07:14:15.291Z,-0.1594
2022-11-30T07:15:15.324Z,-0.1594
2022-11-30T07:16:15.409Z,-0.1446
2022-11-30T07:17:15.385Z,-0.1298
2022-11-30T07:18:15.416Z,-0.1002
2022-11-30T07:19:15.444Z,-0.1149
2022-11-30T07:20:15.479Z,-0.1298
2022-11-30T07:21:15.494Z,-0.1446
2022-11-30T07:22:15.534Z,-0.1446
2022-11-30T07:23:15.571Z,-0.1743
2022-11-30T07:24:15.596Z,-0.1594
2022-11-30T07:25:15.621Z,-0.1743
2022-11-30T07:26:15.653Z,-0.1743
2022-11-30T07:27:15.797Z,-0.1446
2022-11-30T07:28:15.720Z,-0.1298
2022-11-30T07:29:15.765Z,-0.1446
2022-11-30T07:30:15.812Z,-0.1298
2022-11-30T07:31:16.606Z,-0.1149
2022-11-30T07:32:15.870Z,-0.1298
2022-11-30T07:33:15.900Z,-0.1149
2022-11-30T07:34:15.938Z,-0.1069
2022-11-30T07:35:15.967Z,-0.1217
2022-11-30T07:36:15.999Z,-0.1366
2022-11-30T07:37:16.023Z,-0.1366
2022-11-30T07:38:16.044Z,-0.1812
2022-11-30T07:39:16.071Z,-0.1663
2022-11-30T07:40:16.097Z,-0.1514
2022-11-30T07:41:16.136Z,-0.1366
2022-11-30T07:42:16.176Z,-0.1366
2022-11-30T07:43:16.198Z,-0.1217
2022-11-30T07:44:16.251Z,-0.1069
2022-11-30T07:45:16.258Z,-0.1217
2022-11-30T07:46:16.482Z,-0.1217
2022-11-30T07:47:16.313Z,-0.1366
2022-11-30T07:48:16.348Z,-0.1013
2022-11-30T07:49:16.376Z,-0.08649
2022-11-30T07:50:16.412Z,-0.1013
2022-11-30T07:51:16.456Z,-0.08649
2022-11-30T07:52:16.476Z,-0.07164
2022-11-30T07:53:16.504Z,-0.1013
2022-11-30T07:54:16.565Z,-0.1013
2022-11-30T07:55:16.575Z,-0.1311
2022-11-30T07:56:16.608Z,-0.1311
2022-11-30T07:57:16.660Z,-0.1311
2022-11-30T07:58:17.648Z,-0.1311
2022-11-30T07:59:16.697Z,-0.1013
2022-11-30T08:00:16.727Z,-0.1162
2022-11-30T08:01:17.226Z,-0.146
2022-11-30T08:02:16.974Z,-0.08649
2022-11-30T08:03:16.821Z,-0.08649
2022-11-30T08:04:16.872Z,-0.07943
2022-11-30T08:05:16.876Z,-0.1092
2022-11-30T08:06:16.927Z,-0.1539
2022-11-30T08:07:16.925Z,-0.1241
2022-11-30T08:08:16.951Z,-0.1092
2022-11-30T08:09:20.491Z,-0.139
2022-11-30T08:10:17.019Z,-0.139
2022-11-30T08:11:17.080Z,-0.1539
2022-11-30T08:12:17.090Z,-0.1539
2022-11-30T08:13:17.113Z,-0.1311
2022-11-30T08:14:17.152Z,-0.1759
2022-11-30T08:15:20.423Z,-0.2059
2022-11-30T08:16:17.252Z,-0.2059
2022-11-30T08:17:17.244Z,-0.161
2022-11-30T08:18:17.282Z,-0.2059
2022-11-30T08:19:17.318Z,-0.1909
2022-11-30T08:20:17.378Z,-0.1909
2022-11-30T08:21:17.369Z,-0.2059
2022-11-30T08:22:17.404Z,-0.2209
2022-11-30T08:23:17.433Z,-0.2209
2022-11-30T08:24:17.535Z,-0.251
2022-11-30T08:25:17.514Z,-0.251
2022-11-30T08:26:17.523Z,-0.2279
2022-11-30T08:27:17.556Z,-0.2279
2022-11-30T08:28:17.589Z,-0.1978
2022-11-30T08:29:17.618Z,-0.1677
2022-11-30T08:30:17.667Z,-0.1759
2022-11-30T08:31:17.723Z,-0.1759
2022-11-30T08:32:17.713Z,-0.1759
2022-11-30T08:33:17.746Z,-0.1608
2022-11-30T08:34:17.775Z,-0.09254
2022-11-30T08:35:17.820Z,-0.1076
2022-11-30T08:36:17.836Z,-0.0625
2022-11-30T08:37:17.875Z,-0.1578
2022-11-30T08:38:17.904Z,-0.1578
2022-11-30T08:39:17.934Z,-0.1812
2022-11-30T08:40:17.989Z,-0.1159
2022-11-30T08:41:18.098Z,-0.1179
2022-11-30T08:42:18.041Z,-0.1179
2022-11-30T08:43:18.069Z,-0.1783
2022-11-30T08:44:18.099Z,-0.1934
2022-11-30T08:45:18.128Z,-0.133
2022-11-30T08:46:49.761Z,-0.1783
2022-11-30T08:47:18.251Z,-0.1783
2022-11-30T08:48:18.218Z,-0.1481
2022-11-30T08:49:22.500Z,-0.1934
2022-11-30T08:50:18.266Z,-0.2541
2022-11-30T08:51:18.368Z,-0.2541
2022-11-30T08:53:18.359Z,-0.2294
2022-11-30T08:54:18.396Z,-0.2294
2022-11-30T08:55:18.419Z,-0.204
2022-11-30T08:56:18.471Z,-0.2193
2022-11-30T08:57:18.484Z,-0.1734
2022-11-30T08:58:18.514Z,-0.1669
2022-11-30T08:59:18.566Z,-0.1516
2022-11-30T09:00:18.573Z,-0.1992
2022-11-30T09:01:18.616Z,-0.2758
2022-11-30T09:02:19.077Z,-0.2758
2022-11-30T09:03:18.679Z,-0.2605
2022-11-30T09:04:18.732Z,-0.2298
2022-11-30T09:05:18.748Z,-0.2298
2022-11-30T09:06:18.775Z,-0.2992
2022-11-30T09:07:18.878Z,-0.3373
2022-11-30T09:08:18.852Z,-0.2992
2022-11-30T09:09:18.858Z,-0.2513
2022-11-30T09:10:18.891Z,-0.1802
2022-11-30T09:11:18.948Z,-0.1341
2022-11-30T09:12:18.958Z,-0.2264
2022-11-30T09:13:18.995Z,-0.2046
2022-11-30T09:14:19.015Z,-0.1892
2022-11-30T09:15:19.064Z,-0.1892
2022-11-30T09:16:19.183Z,-0.2046
2022-11-30T09:17:19.109Z,-0.2747
2022-11-30T09:18:19.125Z,-0.2592
2022-11-30T09:19:19.174Z,-0.2592
2022-11-30T09:20:19.267Z,-0.2552
2022-11-30T09:21:19.216Z,-0.2863
2022-11-30T09:22:19.251Z,-0.2372
2022-11-30T09:23:19.274Z,-0.2216
2022-11-30T09:24:19.327Z,-0.1906
2022-11-30T09:25:19.335Z,-0.1596
2022-11-30T09:26:19.362Z,-0.1688
2022-11-30T09:27:19.388Z,-0.1859
2022-11-30T09:28:19.439Z,-0.272
2022-11-30T09:29:19.455Z,-0.2826
2022-11-30T09:30:19.528Z,-0.2983
2022-11-30T09:31:19.522Z,-0.2513
2022-11-30T09:32:19.553Z,-0.2285
2022-11-30T09:33:19.604Z,-0.2586
2022-11-30T09:34:19.615Z,-0.2235
2022-11-30T09:35:19.642Z,-0.248
2022-11-30T09:36:19.687Z,-0.2323
2022-11-30T09:37:19.721Z,-0.2008
2022-11-30T09:38:19.752Z,-0.2796
2022-11-30T09:39:19.797Z,-0.2796
2022-11-30T09:40:19.870Z,-0.2638
2022-11-30T09:41:19.827Z,-0.3112
2022-11-30T09:42:19.861Z,-0.3429
2022-11-30T09:43:19.890Z,-0.3091
2022-11-30T09:44:19.911Z,-0.2774
2022-11-30T09:45:19.941Z,-0.1204
2022-11-30T09:46:19.997Z,-0.1081
2022-11-30T09:47:20.020Z,-0.1869
2022-11-30T09:48:20.049Z,-0.2276
2022-11-30T09:49:20.085Z,-0.2118
2022-11-30T09:50:20.185Z,-0.1959
2022-11-30T09:51:20.149Z,-0.2574
2022-11-30T09:52:20.176Z,-0.2404
2022-11-30T09:53:24.602Z,-0.2336
2022-11-30T09:54:20.234Z,-0.2336
2022-11-30T09:55:20.259Z,-0.3523
2022-11-30T09:56:20.291Z,-0.2306
2022-11-30T09:57:20.326Z,-0.1977
2022-11-30T09:58:20.358Z,-0.2456
2022-11-30T09:59:20.455Z,-0.2466
2022-11-30T10:00:20.411Z,-0.24
2022-11-30T10:01:20.488Z,-0.2684
2022-11-30T10:02:20.633Z,-0.2684
2022-11-30T10:03:20.634Z,-0.2684
2022-11-30T10:04:20.531Z,-0.2523
2022-11-30T10:05:20.559Z,-0.2362
2022-11-30T10:06:20.599Z,-0.2297
2022-11-30T10:07:20.656Z,-0.3104
2022-11-30T10:08:20.683Z,-0.2909
2022-11-30T10:09:20.696Z,-0.3071
2022-11-30T10:10:33.409Z,-0.2909
2022-11-30T10:11:20.775Z,-0.3559
2022-11-30T10:12:20.802Z,-0.2909
2022-11-30T10:13:20.854Z,-0.3559
2022-11-30T10:14:20.863Z,-0.2869
2022-11-30T10:15:20.893Z,-0.2544
2022-11-30T10:16:20.987Z,-0.2869
2022-11-30T10:17:20.956Z,-0.2706
2022-11-30T10:18:20.985Z,-0.2643
2022-11-30T10:19:21.040Z,-0.2806
2022-11-30T10:20:21.047Z,-0.3132
2022-11-30T10:21:21.077Z,-0.3459
2022-11-30T10:22:21.119Z,-0.3296
2022-11-30T10:23:21.138Z,-0.3296
2022-11-30T10:24:21.158Z,-0.2743
2022-11-30T10:25:21.196Z,-0.2906
2022-11-30T10:26:21.524Z,-0.3397
2022-11-30T10:27:21.252Z,-0.3049
2022-11-30T10:28:46.477Z,-0.2885
2022-11-30T10:29:21.318Z,-0.3064
2022-11-30T10:30:21.347Z,-0.3228
2022-11-30T10:31:21.452Z,-0.2573
2022-11-30T10:32:21.413Z,-0.29
2022-11-30T10:33:21.437Z,-0.2674
2022-11-30T10:34:21.470Z,-0.3002
2022-11-30T10:35:21.495Z,-0.2511
2022-11-30T10:36:21.527Z,-0.2838
2022-11-30T10:37:21.551Z,-0.2838
2022-11-30T10:38:21.587Z,-0.2838
2022-11-30T10:39:21.631Z,-0.3494
2022-11-30T10:40:21.664Z,-0.3627
2022-11-30T10:41:21.698Z,-0.4289
2022-11-30T10:42:21.753Z,-0.4515
2022-11-30T10:43:21.765Z,-0.4184
2022-11-30T10:44:21.808Z,-0.4018
2022-11-30T10:45:21.840Z,-0.3853
2022-11-30T10:46:21.960Z,-0.3584
2022-11-30T10:47:21.926Z,-0.3029
2022-11-30T10:48:21.939Z,-0.2537
2022-11-30T10:49:21.975Z,-0.2865
2022-11-30T10:50:22.000Z,-0.2865
2022-11-30T10:51:22.055Z,-0.2373
2022-11-30T10:52:22.066Z,-0.2311
2022-11-30T10:53:22.099Z,-0.2147
2022-11-30T10:54:22.130Z,-0.2469
2022-11-30T10:55:22.156Z,-0.2286
2022-11-30T10:56:22.191Z,-0.1793
2022-11-30T10:57:22.228Z,-0.206
2022-11-30T10:58:22.263Z,-0.2389
2022-11-30T10:59:22.296Z,-0.2224
2022-11-30T11:00:22.329Z,-0.05486
2022-11-30T11:01:22.376Z,-0.01592
2022-11-30T11:02:22.417Z,-0.03226
2022-11-30T11:03:22.418Z,-0.2132
2022-11-30T11:04:22.511Z,-0.1815
2022-11-30T11:05:22.489Z,-0.1162
2022-11-30T11:06:22.539Z,0.003542
2022-11-30T11:07:22.676Z,-0.0291
2022-11-30T11:08:22.611Z,-0.1603
2022-11-30T11:09:22.608Z,-0.2745
2022-11-30T11:10:22.667Z,-0.2745
2022-11-30T11:11:22.673Z,-0.2733
2022-11-30T11:12:22.696Z,-0.1721
2022-11-30T11:13:22.894Z,-0.1389
2022-11-30T11:14:22.773Z,-0.1721
2022-11-30T11:15:22.784Z,-0.1007
2022-11-30T11:16:22.943Z,-0.1339
2022-11-30T11:17:22.858Z,-0.1339
2022-11-30T11:18:22.900Z,-0.2022
2022-11-30T11:19:22.923Z,-0.1856
2022-11-30T11:20:22.972Z,-0.2022
2022-11-30T11:21:22.982Z,-0.2853
2022-11-30T11:22:23.016Z,-0.2887
2022-11-30T11:23:23.047Z,-0.2386
2022-11-30T11:24:23.080Z,-0.3054
2022-11-30T11:25:23.133Z,-0.2719
2022-11-30T11:26:23.146Z,-0.2278
2022-11-30T11:27:23.174Z,-0.178
2022-11-30T11:28:23.206Z,-0.1284
2022-11-30T11:29:23.263Z,-0.1224
2022-11-30T11:30:23.270Z,-0.1224
2022-11-30T11:31:23.388Z,-0.1555
2022-11-30T11:32:23.341Z,-0.08932
2022-11-30T11:33:23.382Z,-0.1059
2022-11-30T11:34:23.413Z,-0.1059
2022-11-30T11:35:23.441Z,-0.1717
2022-11-30T11:36:23.468Z,-0.1872
2022-11-30T11:37:23.525Z,-0.1872
2022-11-30T11:38:23.533Z,-0.1373
2022-11-30T11:39:23.613Z,-0.07105
2022-11-30T11:40:23.601Z,-0.00507
2022-11-30T11:41:23.628Z,0.01137
2022-11-30T11:42:23.668Z,-0.1207
2022-11-30T11:43:23.700Z,-0.08758
2022-11-30T11:44:23.730Z,-0.1357
2022-11-30T11:45:23.791Z,-0.1355
2022-11-30T11:46:23.845Z,-0.1855
2022-11-30T11:47:23.829Z,-0.2024
2022-11-30T11:48:28.859Z,-0.1872
2022-11-30T11:49:23.891Z,-0.1191
2022-11-30T11:50:57.829Z,-0.1521
2022-11-30T11:51:23.963Z,-0.1855
2022-11-30T11:52:23.992Z,-0.1521
2022-11-30T11:53:24.158Z,-0.1355
2022-11-30T11:54:24.053Z,-0.1355
2022-11-30T11:55:24.087Z,-0.1521
2022-11-30T11:56:24.122Z,-0.08559
2022-11-30T11:57:24.150Z,-0.08405
2022-11-30T11:58:24.204Z,-0.0662
2022-11-30T11:59:29.362Z,-0.1221
2022-11-30T12:00:24.250Z,-0.1571
2022-11-30T12:01:39.190Z,-0.05749
2022-11-30T12:02:24.338Z,-0.1022
2022-11-30T12:03:24.341Z,-0.1007
2022-11-30T12:04:24.468Z,-0.08287
2022-11-30T12:05:24.402Z,-0.09954
2022-11-30T12:06:24.425Z,-0.09954
2022-11-30T12:07:24.500Z,-0.1221
2022-11-30T12:08:24.485Z,-0.1054
2022-11-30T12:09:24.513Z,-0.08875
2022-11-30T12:11:24.604Z,-0.05551
2022-11-30T12:12:24.613Z,-0.04957
2022-11-30T12:13:24.644Z,-0.0662
2022-11-30T12:14:24.671Z,-0.09954
2022-11-30T12:15:24.704Z,-0.1329
2022-11-30T12:16:24.801Z,-0.0662
2022-11-30T12:17:24.783Z,0.0168
2022-11-30T12:18:24.789Z,0.000242
2022-11-30T12:19:24.820Z,0.000242
2022-11-30T12:20:24.852Z,0.000242
2022-11-30T12:21:24.888Z,0.000242
2022-11-30T12:22:24.945Z,-0.04957
2022-11-30T12:23:24.952Z,-0.08287
2022-11-30T12:24:24.988Z,-0.04957
2022-11-30T12:25:25.022Z,-0.03295
2022-11-30T12:26:25.045Z,-0.0662
2022-11-30T12:27:25.080Z,-0.09954
2022-11-30T12:28:25.112Z,-0.03295
2022-11-30T12:29:25.149Z,0.000242
2022-11-30T12:30:25.166Z,0.03334
2022-11-30T12:31:25.258Z,0.0168
2022-11-30T12:32:25.235Z,-0.03295
2022-11-30T12:33:25.461Z,0.000242
2022-11-30T12:34:25.296Z,0.03334
2022-11-30T12:35:25.332Z,0.08898
2022-11-30T12:36:25.358Z,0.08898
2022-11-30T12:37:25.385Z,0.03937
2022-11-30T12:38:25.413Z,0.02281
2022-11-30T12:39:25.448Z,0.03937
2022-11-30T12:40:25.476Z,0.02281
2022-11-30T12:41:25.526Z,-0.02825
2022-11-30T12:42:25.540Z,0.0215
2022-11-30T12:43:25.582Z,0.03805
2022-11-30T12:44:25.608Z,0.0711
2022-11-30T12:45:25.633Z,0.1041
2022-11-30T12:46:25.713Z,0.0546
2022-11-30T12:47:25.687Z,-0.04487
2022-11-30T12:48:25.720Z,0.004943
2022-11-30T12:49:25.752Z,0.0711
2022-11-30T12:50:25.803Z,0.03805
2022-11-30T12:51:29.762Z,0.0546
2022-11-30T12:52:25.856Z,0.08759
2022-11-30T12:53:25.875Z,0.03937
2022-11-30T12:54:25.927Z,-0.01634
2022-11-30T12:55:25.944Z,0.000242
2022-11-30T12:56:25.984Z,0.03334
2022-11-30T12:57:25.995Z,0.0168
2022-11-30T12:58:26.017Z,-0.01634
2022-11-30T12:59:26.045Z,0.03334
2022-11-30T13:00:26.100Z,0.0168
2022-11-30T13:01:26.103Z,0.03334
2022-11-30T13:02:26.224Z,0.0168
2022-11-30T13:03:26.171Z,0.0664
2022-11-30T13:04:26.198Z,0.0664
2022-11-30T13:05:26.233Z,0.03334
2022-11-30T13:06:26.269Z,0.06501
2022-11-30T13:07:26.372Z,0.08151
2022-11-30T13:08:26.349Z,0.08151
2022-11-30T13:09:26.362Z,0.06814
2022-11-30T13:10:26.395Z,0.1177
2022-11-30T13:11:26.422Z,0.1177
2022-11-30T13:12:26.451Z,0.1342
2022-11-30T13:13:26.479Z,0.1671
2022-11-30T13:14:26.518Z,0.2
2022-11-30T13:15:26.578Z,0.1671
2022-11-30T13:16:26.663Z,0.1835
2022-11-30T13:17:26.616Z,0.1671
2022-11-30T13:18:26.660Z,0.1671
2022-11-30T13:19:26.673Z,0.2061
2022-11-30T13:20:26.730Z,0.2226
2022-11-30T13:21:26.743Z,0.1568
2022-11-30T13:22:26.777Z,0.1073
2022-11-30T13:23:26.970Z,0.1568
2022-11-30T13:24:26.858Z,0.1238
2022-11-30T13:25:59.729Z,0.09071
2022-11-30T13:26:26.900Z,0.07416
2022-11-30T13:27:26.921Z,0.0576
2022-11-30T13:28:26.970Z,0.0576
2022-11-30T13:29:27.014Z,0.07416
2022-11-30T13:30:27.013Z,0.1238
2022-11-30T13:31:27.126Z,0.1732
2022-11-30T13:32:56.805Z,0.07416
2022-11-30T13:33:27.116Z,0.07416
2022-11-30T13:34:27.144Z,0.0576
2022-11-30T13:35:27.181Z,0.1073
2022-11-30T13:36:27.225Z,0.007762
2022-11-30T13:37:27.547Z,-0.05081
2022-11-30T13:38:36.860Z,0.0168
2022-11-30T13:39:27.295Z,0.03202
2022-11-30T13:40:27.321Z,0.04853
2022-11-30T13:41:27.352Z,0.01372
2022-11-30T13:42:27.384Z,0.01372
2022-11-30T13:43:27.416Z,0.04669
2022-11-30T13:44:27.452Z,0.09598
2022-11-30T13:45:27.508Z,0.06313
2022-11-30T13:46:27.539Z,0.06313
2022-11-30T13:47:27.582Z,0.04669
2022-11-30T13:48:27.601Z,0.04149
2022-11-30T13:49:27.617Z,0.05792
2022-11-30T13:50:27.651Z,0.1071
2022-11-30T13:51:27.697Z,0.1235
2022-11-30T13:52:27.746Z,0.05644
2022-11-30T13:53:27.742Z,0.05438
2022-11-30T13:54:28.377Z,0.0216
2022-11-30T13:55:27.789Z,0.03178
2022-11-30T13:56:27.820Z,0.03331
2022-11-30T13:57:27.855Z,0.01744
2022-11-30T13:58:27.909Z,-0.05692
2022-11-30T13:59:27.917Z,-0.02413
2022-11-30T14:00:27.985Z,0.02492
2022-11-30T14:01:27.963Z,0.07379
2022-11-30T14:02:28.021Z,0.1063
2022-11-30T14:03:28.030Z,0.04123
2022-11-30T14:04:28.065Z,0.0349
2022-11-30T14:05:28.095Z,0.0309
2022-11-30T14:06:29.072Z,0.06333
2022-11-30T14:07:28.248Z,0.02543
2022-11-30T14:08:28.217Z,0.07398
2022-11-30T14:09:28.221Z,0.07398
2022-11-30T14:10:28.259Z,0.07398
2022-11-30T14:11:28.287Z,0.005009
2022-11-30T14:12:28.313Z,-0.01762
2022-11-30T14:13:28.372Z,-0.02025
2022-11-30T14:14:28.381Z,-0.04289
2022-11-30T14:15:28.412Z,-0.04289
2022-11-30T14:16:28.514Z,-0.01066
2022-11-30T14:17:28.480Z,-0.06458
2022-11-30T14:18:28.540Z,-0.03237
2022-11-30T14:19:28.543Z,-0.05307
2022-11-30T14:20:31.058Z,-0.1497
2022-11-30T14:21:28.618Z,-0.1723
2022-11-30T14:22:28.660Z,-0.2072
2022-11-30T14:23:28.716Z,-0.2119
2022-11-30T14:24:28.748Z,-0.1958
2022-11-30T14:25:28.758Z,-0.2184
2022-11-30T14:26:28.784Z,-0.1701
2022-11-30T14:27:28.809Z,-0.1711
2022-11-30T14:28:28.865Z,-0.2211
2022-11-30T14:29:28.881Z,-0.2277
2022-11-30T14:30:28.926Z,-0.2438
2022-11-30T14:31:29.022Z,-0.2834
2022-11-30T14:32:29.007Z,-0.3183
2022-11-30T14:33:29.016Z,-0.3277
2022-11-30T14:34:29.050Z,-0.2638
2022-11-30T14:35:29.080Z,-0.3137
2022-11-30T14:36:29.122Z,-0.3137
2022-11-30T14:37:29.307Z,-0.3693
2022-11-30T14:38:29.196Z,-0.3564
2022-11-30T14:39:29.220Z,-0.3246
2022-11-30T14:40:29.249Z,-0.3575
2022-11-30T14:41:29.277Z,-0.447
2022-11-30T14:42:29.302Z,-0.43
2022-11-30T14:43:29.336Z,-0.431
2022-11-30T14:44:29.352Z,-0.5015
2022-11-30T14:45:29.377Z,-0.5252
2022-11-30T14:46:29.464Z,-0.592
2022-11-30T14:47:29.441Z,-0.5987
2022-11-30T14:48:29.464Z,-0.6106
2022-11-30T14:49:29.497Z,-0.6642
2022-11-30T14:50:29.556Z,-0.6324
2022-11-30T14:51:29.562Z,-0.69
2022-11-30T14:52:32.273Z,-0.6583
2022-11-30T14:53:29.631Z,-0.6336
2022-11-30T14:54:29.659Z,-0.7372
2022-11-30T14:55:29.715Z,-0.7454
2022-11-30T14:56:29.732Z,-0.7104
2022-11-30T14:57:29.819Z,-0.7331
2022-11-30T14:58:29.790Z,-0.71
2022-11-30T14:59:29.826Z,-0.733
2022-11-30T15:00:29.854Z,-0.7714
2022-11-30T15:01:29.941Z,-0.7737
2022-11-30T15:02:29.993Z,-0.7643
2022-11-30T15:03:29.943Z,-0.8188
2022-11-30T15:04:29.979Z,-0.8259
2022-11-30T15:05:30.003Z,-0.8415
2022-11-30T15:06:30.036Z,-0.8331
2022-11-30T15:07:30.116Z,-0.8697
2022-11-30T15:08:30.105Z,-0.8769
2022-11-30T15:09:30.134Z,-0.8842
2022-11-30T15:10:30.184Z,-0.891
2022-11-30T15:11:30.195Z,-0.8974
2022-11-30T15:12:30.221Z,-0.8342
2022-11-30T15:13:30.256Z,-0.8767
2022-11-30T15:14:30.289Z,-0.8443
2022-11-30T15:15:30.347Z,-0.8947
2022-11-30T15:16:30.446Z,-0.8794
2022-11-30T15:17:30.389Z,-0.8859
2022-11-30T15:18:30.426Z,-0.9057
2022-11-30T15:19:30.449Z,-0.9085
2022-11-30T15:20:30.484Z,-1.014
2022-11-30T15:21:30.519Z,-0.9682
2022-11-30T15:22:30.548Z,-0.9606
2022-11-30T15:23:30.647Z,-1.013
2022-11-30T15:24:30.716Z,-1.078
2022-11-30T15:25:30.624Z,-1.089
2022-11-30T15:26:30.665Z,-1.04
2022-11-30T15:27:30.710Z,-1.116
2022-11-30T15:28:30.725Z,-1.116
2022-11-30T15:29:30.759Z,-1.144
2022-11-30T15:30:30.787Z,-1.134
2022-11-30T15:31:30.850Z,-1.176
2022-11-30T15:32:30.860Z,-1.176
2022-11-30T15:33:30.890Z,-1.161
2022-11-30T15:34:30.934Z,-1.219
2022-11-30T15:35:50.303Z,-1.224
2022-11-30T15:36:33.746Z,-1.267
2022-11-30T15:37:31.011Z,-1.234
2022-11-30T15:38:31.045Z,-1.189
2022-11-30T15:39:31.072Z,-1.174
2022-11-30T15:40:31.103Z,-1.198
2022-11-30T15:41:31.138Z,-1.213
2022-11-30T15:42:31.229Z,-1.198
2022-11-30T15:43:31.188Z,-1.198
2022-11-30T15:44:31.241Z,-1.221
2022-11-30T15:45:31.344Z,-1.241
2022-11-30T15:46:31.368Z,-1.226
2022-11-30T15:47:31.285Z,-1.189
2022-11-30T15:48:31.332Z,-1.189
2022-11-30T15:49:31.358Z,-1.272
2022-11-30T15:50:31.388Z,-1.257
2022-11-30T15:51:31.424Z,-1.257
2022-11-30T15:52:31.443Z,-1.224
2022-11-30T15:53:31.491Z,-1.224
2022-11-30T15:54:31.492Z,-1.226
2022-11-30T15:55:31.517Z,-1.209
2022-11-30T15:56:31.545Z,-1.217
2022-11-30T15:57:31.573Z,-1.165
2022-11-30T15:58:31.610Z,-1.198
2022-11-30T15:59:36.642Z,-1.212
2022-11-30T16:00:31.667Z,-1.235
2022-11-30T16:01:31.745Z,-1.265
2022-11-30T16:02:31.812Z,-1.294
2022-11-30T16:03:31.757Z,-1.309
2022-11-30T16:04:31.785Z,-1.309
2022-11-30T16:05:31.815Z,-1.309
2022-11-30T16:06:31.849Z,-1.309
2022-11-30T16:07:31.952Z,-1.309
2022-11-30T16:08:31.956Z,-1.309
2022-11-30T16:09:31.985Z,-1.339
2022-11-30T16:10:32.030Z,-1.46
2022-11-30T16:11:32.035Z,-1.441
2022-11-30T16:12:32.074Z,-1.464
2022-11-30T16:13:32.098Z,-1.517
2022-11-30T16:14:32.136Z,-1.517
2022-11-30T16:15:32.166Z,-1.531
2022-11-30T16:16:32.257Z,-1.539
2022-11-30T16:17:32.226Z,-1.545
2022-11-30T16:18:32.255Z,-1.563
2022-11-30T16:19:32.314Z,-1.613
2022-11-30T16:20:32.320Z,-1.628
2022-11-30T16:21:32.358Z,-1.636
2022-11-30T16:22:32.387Z,-1.621
2022-11-30T16:23:32.417Z,-1.559
2022-11-30T16:24:32.468Z,-1.512
2022-11-30T16:25:32.480Z,-1.527
2022-11-30T16:26:51.118Z,-1.556
2022-11-30T16:27:32.532Z,-1.562
2022-11-30T16:28:32.566Z,-1.579
2022-11-30T16:29:32.614Z,-1.579
2022-11-30T16:30:32.616Z,-1.594
2022-11-30T16:31:32.953Z,-1.594
2022-11-30T16:32:32.683Z,-1.594
2022-11-30T16:33:32.710Z,-1.571
2022-11-30T16:34:32.741Z,-1.623
2022-11-30T16:35:32.798Z,-1.638
2022-11-30T16:36:32.814Z,-1.623
2022-11-30T16:37:32.839Z,-1.609
2022-11-30T16:38:32.863Z,-1.594
2022-11-30T16:39:32.911Z,-1.594
2022-11-30T16:40:38.573Z,-1.617
2022-11-30T16:41:32.937Z,-1.572
2022-11-30T16:42:32.961Z,-1.558
2022-11-30T16:43:32.993Z,-1.505
2022-11-30T16:44:33.023Z,-1.52
2022-11-30T16:45:33.094Z,-1.535
2022-11-30T16:46:33.119Z,-1.55
2022-11-30T16:47:33.132Z,-1.582
2022-11-30T16:48:33.187Z,-1.588
2022-11-30T16:49:33.212Z,-1.61
2022-11-30T16:50:33.221Z,-1.58
2022-11-30T16:51:33.249Z,-1.7
2022-11-30T16:52:33.283Z,-1.7